Time;durP1;ratioP1;P1;durP2;ratioP2;P2;SDS_P1;SDS_P2;PMS_P1;PMS_P2;Temp;Humidity;BMP_temperature;BMP_pressure;BME280_temperature;BME280_humidity;BME280_pressure;Samples;Min_cycle;Max_cycle;Signal;HPM_P1;HPM_P2
2022/08/27 00:03:06;;;;;;;5.45;3.30;;;;;;;;;;10483328;28;20028;-57
2022/08/27 00:08:11;;;;;;;7.57;4.20;;;;;;;;;;10484049;28;20051;-58
2022/08/27 00:13:12;;;;;;;8.98;3.88;;;;;;;;;;10488767;28;20029;-57
2022/08/27 00:18:13;;;;;;;8.55;3.70;;;;;;;;;;10457823;28;20040;-58
2022/08/27 00:23:13;;;;;;;7.53;3.60;;;;;;;;;;10484437;28;20499;-57
2022/08/27 00:28:14;;;;;;;5.70;4.07;;;;;;;;;;10485019;28;20040;-58
2022/08/27 00:33:15;;;;;;;5.82;3.90;;;;;;;;;;10485175;28;20028;-57
2022/08/27 00:38:17;;;;;;;8.93;4.30;;;;;;;;;;10489945;28;20103;-54
2022/08/27 00:43:30;;;;;;;6.07;4.03;;;;;;;;;;10477853;28;20442;-56
2022/08/27 00:48:35;;;;;;;6.40;4.47;;;;;;;;;;10475847;28;20082;-55
2022/08/27 00:53:35;;;;;;;7.32;4.65;;;;;;;;;;10480662;28;20446;-55
2022/08/27 00:58:44;;;;;;;8.52;5.25;;;;;;;;;;10477001;28;20024;-55
2022/08/27 01:03:51;;;;;;;12.60;5.07;;;;;;;;;;10461286;28;20044;-55
2022/08/27 01:09:12;;;;;;;10.60;6.70;;;;;;;;;;10456163;28;20029;-55
2022/08/27 01:14:13;;;;;;;13.48;6.65;;;;;;;;;;10460319;28;20067;-54
2022/08/27 01:19:37;;;;;;;12.85;5.78;;;;;;;;;;10469529;28;20044;-57
2022/08/27 01:24:45;;;;;;;8.30;5.28;;;;;;;;;;10482206;28;20431;-57
2022/08/27 01:29:46;;;;;;;5.55;3.75;;;;;;;;;;10489315;28;20028;-56
2022/08/27 01:34:47;;;;;;;8.10;4.57;;;;;;;;;;10474917;28;20060;-57
2022/08/27 01:39:48;;;;;;;9.10;4.57;;;;;;;;;;10489655;28;20117;-56
2022/08/27 01:44:56;;;;;;;6.22;3.50;;;;;;;;;;10473626;28;20037;-57
2022/08/27 01:49:59;;;;;;;9.32;4.82;;;;;;;;;;10480481;28;20043;-57
2022/08/27 01:54:59;;;;;;;7.03;4.80;;;;;;;;;;10475170;28;20270;-57
2022/08/27 02:00:08;;;;;;;8.60;5.18;;;;;;;;;;10473722;28;20575;-57
2022/08/27 02:05:10;;;;;;;8.73;4.20;;;;;;;;;;10461167;28;20041;-57
2022/08/27 02:10:20;;;;;;;11.70;4.60;;;;;;;;;;10486261;28;20090;-57
2022/08/27 02:15:21;;;;;;;7.95;4.25;;;;;;;;;;10487391;28;20025;-57
2022/08/27 02:20:22;;;;;;;6.80;3.95;;;;;;;;;;10488321;28;20047;-57
2022/08/27 02:25:23;;;;;;;8.85;3.83;;;;;;;;;;10475660;28;20172;-57
2022/08/27 02:30:25;;;;;;;9.35;3.90;;;;;;;;;;10496931;28;20058;-57
2022/08/27 02:35:27;;;;;;;6.45;3.95;;;;;;;;;;10483626;28;20029;-57
2022/08/27 02:40:28;;;;;;;6.13;3.92;;;;;;;;;;10478008;28;20115;-57
2022/08/27 02:45:29;;;;;;;6.35;3.90;;;;;;;;;;10470262;28;20040;-57
2022/08/27 02:50:29;;;;;;;6.82;4.32;;;;;;;;;;10459743;28;20024;-57
2022/08/27 02:55:32;;;;;;;6.32;4.10;;;;;;;;;;10478617;28;20241;-57
2022/08/27 03:00:33;;;;;;;8.18;4.35;;;;;;;;;;10494934;28;20043;-57
2022/08/27 03:05:34;;;;;;;6.05;3.90;;;;;;;;;;10482501;28;20049;-57
2022/08/27 03:10:35;;;;;;;6.75;4.22;;;;;;;;;;10461554;28;20029;-56
2022/08/27 03:15:35;;;;;;;9.68;3.90;;;;;;;;;;10480482;28;20025;-56
2022/08/27 03:20:39;;;;;;;6.25;4.00;;;;;;;;;;10475094;28;20388;-57
2022/08/27 03:25:50;;;;;;;6.13;3.88;;;;;;;;;;10475715;28;20396;-56
2022/08/27 03:30:57;;;;;;;6.95;4.30;;;;;;;;;;10469147;28;20043;-57
2022/08/27 03:35:58;;;;;;;10.82;3.95;;;;;;;;;;10481302;28;20113;-57
2022/08/27 03:40:59;;;;;;;6.45;3.75;;;;;;;;;;10463685;28;20020;-56
2022/08/27 03:46:00;;;;;;;10.75;4.00;;;;;;;;;;10475136;28;20028;-57
2022/08/27 03:51:10;;;;;;;5.82;4.55;;;;;;;;;;10480231;28;20035;-56
2022/08/27 03:56:11;;;;;;;5.78;3.83;;;;;;;;;;10456341;28;20036;-57
2022/08/27 04:01:12;;;;;;;6.07;4.07;;;;;;;;;;10463960;28;20067;-57
2022/08/27 04:06:12;;;;;;;6.03;3.65;;;;;;;;;;10477442;28;20128;-57
2022/08/27 04:11:13;;;;;;;6.15;3.92;;;;;;;;;;10472200;28;20054;-57
2022/08/27 04:16:14;;;;;;;6.10;3.70;;;;;;;;;;10466050;28;20078;-56
2022/08/27 04:21:14;;;;;;;9.32;4.10;;;;;;;;;;10470914;28;20436;-57
2022/08/27 04:26:15;;;;;;;8.73;4.20;;;;;;;;;;10492109;28;20375;-56
2022/08/27 04:31:16;;;;;;;8.57;4.35;;;;;;;;;;10491484;28;20463;-56
2022/08/27 04:36:17;;;;;;;6.75;3.95;;;;;;;;;;10492726;28;20115;-56
2022/08/27 04:41:18;;;;;;;7.43;4.55;;;;;;;;;;10491402;28;20024;-56
2022/08/27 04:46:25;;;;;;;9.25;4.80;;;;;;;;;;10480847;28;20025;-56
2022/08/27 04:51:28;;;;;;;8.90;4.67;;;;;;;;;;10486122;28;20024;-56
2022/08/27 04:56:29;;;;;;;10.27;5.28;;;;;;;;;;10489967;28;20275;-55
2022/08/27 05:01:30;;;;;;;9.50;4.93;;;;;;;;;;10490221;28;20056;-56
2022/08/27 05:06:33;;;;;;;8.18;5.57;;;;;;;;;;10485865;28;20040;-56
2022/08/27 05:11:33;;;;;;;7.88;6.10;;;;;;;;;;10450144;28;20112;-56
2022/08/27 05:16:36;;;;;;;11.05;6.43;;;;;;;;;;10449889;28;20036;-56
2022/08/27 05:21:42;;;;;;;12.10;6.05;;;;;;;;;;10479690;28;20028;-56
2022/08/27 05:26:43;;;;;;;14.52;6.88;;;;;;;;;;10457973;28;20512;-56
2022/08/27 05:31:46;;;;;;;10.18;7.15;;;;;;;;;;10467499;28;20297;-55
2022/08/27 05:36:47;;;;;;;10.93;7.68;;;;;;;;;;10476713;28;20404;-56
2022/08/27 05:41:47;;;;;;;9.73;6.72;;;;;;;;;;10486835;28;20044;-56
2022/08/27 05:46:48;;;;;;;12.35;7.63;;;;;;;;;;10461641;28;20385;-56
2022/08/27 05:51:49;;;;;;;13.48;7.85;;;;;;;;;;10488174;28;20441;-56
2022/08/27 05:56:49;;;;;;;10.18;7.43;;;;;;;;;;10466198;28;20411;-56
2022/08/27 06:01:53;;;;;;;15.70;7.35;;;;;;;;;;10483635;28;20036;-56
2022/08/27 06:06:53;;;;;;;12.93;7.30;;;;;;;;;;10484040;28;20056;-56
2022/08/27 06:11:56;;;;;;;12.50;6.90;;;;;;;;;;10484074;28;20048;-56
2022/08/27 06:16:59;;;;;;;17.77;6.93;;;;;;;;;;10480602;28;20280;-56
2022/08/27 06:22:01;;;;;;;13.50;7.13;;;;;;;;;;10482490;28;20033;-56
2022/08/27 06:27:01;;;;;;;9.60;6.35;;;;;;;;;;10471175;28;20037;-56
2022/08/27 06:32:03;;;;;;;10.23;6.20;;;;;;;;;;10477184;28;20028;-58
2022/08/27 06:37:04;;;;;;;8.75;6.30;;;;;;;;;;10487210;28;20475;-55
2022/08/27 06:42:05;;;;;;;9.07;6.38;;;;;;;;;;10488711;28;20323;-55
2022/08/27 06:47:06;;;;;;;8.75;5.68;;;;;;;;;;10475588;28;20447;-57
2022/08/27 06:52:06;;;;;;;7.40;5.30;;;;;;;;;;10473622;28;20056;-55
2022/08/27 06:57:07;;;;;;;10.32;4.90;;;;;;;;;;10470315;28;20034;-56
2022/08/27 07:02:08;;;;;;;7.50;4.90;;;;;;;;;;10465170;28;20388;-57
2022/08/27 07:07:12;;;;;;;6.82;5.00;;;;;;;;;;10483975;28;20036;-56
2022/08/27 07:12:13;;;;;;;6.88;4.68;;;;;;;;;;10493051;28;20495;-57
2022/08/27 07:17:17;;;;;;;10.98;5.50;;;;;;;;;;10491246;28;20040;-56
2022/08/27 07:22:27;;;;;;;10.73;5.03;;;;;;;;;;10483982;28;20020;-55
2022/08/27 07:27:28;;;;;;;8.10;5.47;;;;;;;;;;10480249;28;20024;-55
2022/08/27 07:32:29;;;;;;;15.43;4.90;;;;;;;;;;10489329;28;20020;-56
2022/08/27 07:37:29;;;;;;;10.63;5.90;;;;;;;;;;10490159;28;20085;-57
2022/08/27 07:47:50;;;;;;;11.93;5.38;;;;;;;;;;10482821;28;20032;-57
2022/08/27 07:52:51;;;;;;;11.15;5.25;;;;;;;;;;10489349;28;20086;-57
2022/08/27 07:57:52;;;;;;;7.72;5.22;;;;;;;;;;10479747;28;20155;-57
2022/08/27 08:02:52;;;;;;;10.85;4.38;;;;;;;;;;10483064;28;20070;-57
2022/08/27 08:07:53;;;;;;;9.50;5.55;;;;;;;;;;10484813;28;20048;-57
2022/08/27 08:12:53;;;;;;;14.57;5.88;;;;;;;;;;10483973;28;20032;-58
2022/08/27 08:17:54;;;;;;;9.68;4.97;;;;;;;;;;10484660;28;20043;-55
2022/08/27 08:22:55;;;;;;;9.60;5.13;;;;;;;;;;10489833;28;20110;-57
2022/08/27 08:27:56;;;;;;;11.98;4.70;;;;;;;;;;10490302;28;20447;-56
2022/08/27 08:32:56;;;;;;;14.10;5.93;;;;;;;;;;10488478;28;20035;-56
2022/08/27 08:37:57;;;;;;;8.00;5.63;;;;;;;;;;10489585;28;20028;-58
2022/08/27 08:42:59;;;;;;;13.60;5.90;;;;;;;;;;10485918;28;20142;-54
2022/08/27 08:48:13;;;;;;;18.88;6.93;;;;;;;;;;10484888;28;20332;-53
2022/08/27 08:53:23;;;;;;;21.35;6.88;;;;;;;;;;10470483;28;20028;-55
2022/08/27 08:58:51;;;;;;;20.58;6.78;;;;;;;;;;10469236;28;20443;-55
2022/08/27 09:03:56;;;;;;;;;;;;;;;;;;10484141;28;20495;-56
2022/08/27 09:09:05;;;;;;;12.50;6.38;;;;;;;;;;10469963;28;20367;-55
2022/08/27 09:14:30;;;;;;;9.27;6.45;;;;;;;;;;10469991;28;20025;-56
2022/08/27 09:19:33;;;;;;;13.27;6.53;;;;;;;;;;10484361;28;20372;-55
2022/08/27 09:25:06;;;;;;;12.15;6.95;;;;;;;;;;10469485;28;20388;-53
2022/08/27 09:30:12;;;;;;;18.45;6.82;;;;;;;;;;10452769;28;20499;-55
2022/08/27 09:35:14;;;;;;;11.35;6.70;;;;;;;;;;10486728;28;20028;-54
2022/08/27 09:40:25;;;;;;;10.13;5.68;;;;;;;;;;10483652;28;20028;-49
2022/08/27 09:45:28;;;;;;;11.85;5.90;;;;;;;;;;10471801;28;20411;-49
2022/08/27 09:50:58;;;;;;;13.65;6.10;;;;;;;;;;10476736;28;20020;-49
2022/08/27 09:56:03;;;;;;;14.70;6.03;;;;;;;;;;10475766;28;20063;-57
2022/08/27 10:01:24;;;;;;;10.65;5.82;;;;;;;;;;10487129;28;20488;-57
2022/08/27 10:06:28;;;;;;;10.23;6.07;;;;;;;;;;10478639;28;20162;-54
2022/08/27 10:11:46;;;;;;;14.68;5.28;;;;;;;;;;10487364;28;20029;-57
2022/08/27 10:16:57;;;;;;;12.63;5.82;;;;;;;;;;10481658;28;20391;-49
2022/08/27 10:22:16;;;;;;;15.80;5.43;;;;;;;;;;10479255;28;20037;-50
2022/08/27 10:27:54;;;;;;;12.75;5.60;;;;;;;;;;10489184;28;20052;-50
2022/08/27 10:33:17;;;;;;;;;;;;;;;;;;10473097;28;20416;-56
2022/08/27 10:38:34;;;;;;;7.30;5.15;;;;;;;;;;10487217;28;19916;-55
2022/08/27 10:44:05;;;;;;;13.43;5.22;;;;;;;;;;10467543;28;20052;-55
2022/08/27 10:49:49;;;;;;;9.43;5.05;;;;;;;;;;10487634;28;20036;-57
2022/08/27 10:55:33;;;;;;;11.93;5.30;;;;;;;;;;10484758;28;20028;-56
2022/08/27 11:00:49;;;;;;;5.32;3.90;;;;;;;;;;10468592;28;20032;-49
2022/08/27 11:05:50;;;;;;;7.35;4.60;;;;;;;;;;10491463;28;20040;-49
2022/08/27 11:11:04;;;;;;;7.85;3.92;;;;;;;;;;10472773;28;20029;-49
2022/08/27 11:16:27;;;;;;;5.63;3.85;;;;;;;;;;10476687;28;20036;-49
2022/08/27 11:21:59;;;;;;;5.28;3.47;;;;;;;;;;10468686;28;20056;-50
2022/08/27 11:27:06;;;;;;;5.18;3.67;;;;;;;;;;10458948;28;20078;-53
2022/08/27 11:32:26;;;;;;;5.03;4.17;;;;;;;;;;10462640;28;20488;-51
2022/08/27 11:37:44;;;;;;;5.70;3.78;;;;;;;;;;10473576;28;20946;-50
2022/08/27 11:42:50;;;;;;;5.82;4.05;;;;;;;;;;10449836;28;20434;-48
2022/08/27 11:48:22;;;;;;;6.32;4.28;;;;;;;;;;10470739;28;20016;-51
2022/08/27 11:53:33;;;;;;;9.80;3.78;;;;;;;;;;10452745;28;20482;-51
2022/08/27 11:58:34;;;;;;;6.28;3.90;;;;;;;;;;10488362;28;20111;-52
2022/08/27 12:03:35;;;;;;;5.55;3.63;;;;;;;;;;10491933;28;20484;-49
2022/08/27 12:08:37;;;;;;;5.35;3.70;;;;;;;;;;10486868;28;20074;-51
2022/08/27 12:14:20;;;;;;;7.82;3.58;;;;;;;;;;10489652;28;20100;-55
2022/08/27 12:19:42;;;;;;;7.20;4.00;;;;;;;;;;10479070;28;20032;-53
2022/08/27 12:24:51;;;;;;;5.18;3.88;;;;;;;;;;10474117;28;20029;-50
2022/08/27 12:30:18;;;;;;;6.63;3.60;;;;;;;;;;10484235;28;20036;-49
2022/08/27 12:35:21;;;;;;;6.82;3.65;;;;;;;;;;10479613;28;20101;-51
2022/08/27 12:40:27;;;;;;;5.28;3.92;;;;;;;;;;10483589;28;20035;-49
2022/08/27 12:45:29;;;;;;;7.47;3.95;;;;;;;;;;10480037;28;20036;-50
2022/08/27 12:50:30;;;;;;;5.18;3.25;;;;;;;;;;10474431;28;20040;-49
2022/08/27 12:56:12;;;;;;;7.40;3.47;;;;;;;;;;10469103;28;20040;-56
2022/08/27 13:01:49;;;;;;;5.68;3.33;;;;;;;;;;10473671;28;20040;-51
2022/08/27 13:06:50;;;;;;;7.95;3.80;;;;;;;;;;10461837;28;20129;-48
2022/08/27 13:11:55;;;;;;;7.55;3.40;;;;;;;;;;10483541;28;20377;-47
2022/08/27 13:17:18;;;;;;;4.28;3.25;;;;;;;;;;10469951;28;20075;-51
2022/08/27 13:22:37;;;;;;;11.27;4.13;;;;;;;;;;10440371;28;20040;-48
2022/08/27 13:27:58;;;;;;;17.38;3.17;;;;;;;;;;10456056;28;20036;-47
2022/08/27 13:33:05;;;;;;;7.45;2.88;;;;;;;;;;10443725;28;20452;-50
2022/08/27 13:38:07;;;;;;;6.88;2.78;;;;;;;;;;10468558;28;20032;-49
2022/08/27 13:43:13;;;;;;;5.68;3.03;;;;;;;;;;10457848;28;20032;-52
2022/08/27 13:48:18;;;;;;;6.40;2.67;;;;;;;;;;10455780;28;20029;-49
2022/08/27 13:58:53;;;;;;;4.22;3.00;;;;;;;;;;10463508;28;20068;-48
2022/08/27 14:04:20;;;;;;;8.93;2.67;;;;;;;;;;10477506;28;20817;-52
2022/08/27 14:09:29;;;;;;;5.20;3.38;;;;;;;;;;10476179;28;20025;-57
2022/08/27 14:14:40;;;;;;;3.40;2.78;;;;;;;;;;10481302;28;20024;-49
2022/08/27 14:19:43;;;;;;;4.78;3.30;;;;;;;;;;10465628;28;20037;-53
2022/08/27 14:24:47;;;;;;;9.48;3.63;;;;;;;;;;10472448;28;20033;-48
2022/08/27 14:29:48;;;;;;;13.50;3.00;;;;;;;;;;10476537;28;20036;-49
2022/08/27 14:34:49;;;;;;;13.80;3.63;;;;;;;;;;10480802;28;20036;-49
2022/08/27 14:39:50;;;;;;;6.50;3.15;;;;;;;;;;10485742;28;20433;-49
2022/08/27 14:44:51;;;;;;;6.82;3.13;;;;;;;;;;10465403;28;20029;-49
2022/08/27 14:49:54;;;;;;;4.18;2.85;;;;;;;;;;10483328;28;20028;-56
2022/08/27 14:54:56;;;;;;;4.18;3.00;;;;;;;;;;10485989;28;20063;-54
2022/08/27 14:59:59;;;;;;;12.10;3.13;;;;;;;;;;10481728;28;20024;-50
2022/08/27 15:05:04;;;;;;;5.65;3.00;;;;;;;;;;10482642;28;20072;-51
2022/08/27 15:10:09;;;;;;;11.65;3.05;;;;;;;;;;10490256;28;20040;-51
2022/08/27 15:15:10;;;;;;;5.78;2.97;;;;;;;;;;10474627;28;20036;-49
2022/08/27 15:20:16;;;;;;;4.82;3.00;;;;;;;;;;10476129;28;20025;-49
2022/08/27 15:25:22;;;;;;;9.10;2.80;;;;;;;;;;10473602;28;20426;-49
2022/08/27 15:30:32;;;;;;;6.57;2.75;;;;;;;;;;10479323;28;20478;-49
2022/08/27 15:35:34;;;;;;;4.78;2.20;;;;;;;;;;10476427;28;20037;-49
2022/08/27 15:40:35;;;;;;;6.03;2.90;;;;;;;;;;10482581;28;20032;-49
2022/08/27 15:45:37;;;;;;;3.50;2.70;;;;;;;;;;10467649;28;20263;-50
2022/08/27 15:50:46;;;;;;;4.47;2.60;;;;;;;;;;10479089;28;20024;-50
2022/08/27 15:55:47;;;;;;;3.83;2.70;;;;;;;;;;10464568;28;20056;-50
2022/08/27 16:01:07;;;;;;;7.65;3.90;;;;;;;;;;10473757;28;20052;-49
2022/08/27 16:06:10;;;;;;;3.80;3.20;;;;;;;;;;10472370;28;20036;-49
2022/08/27 16:11:12;;;;;;;3.90;2.90;;;;;;;;;;10461477;28;20037;-49
2022/08/27 16:16:16;;;;;;;3.20;2.85;;;;;;;;;;10474338;28;20128;-49
2022/08/27 16:21:18;;;;;;;7.32;2.85;;;;;;;;;;10455104;28;20086;-49
2022/08/27 16:26:19;;;;;;;4.43;2.70;;;;;;;;;;10483493;28;20024;-50
2022/08/27 16:31:28;;;;;;;4.47;2.70;;;;;;;;;;10467124;28;20029;-50
2022/08/27 16:36:31;;;;;;;3.58;2.60;;;;;;;;;;10477608;28;20040;-51
2022/08/27 16:41:33;;;;;;;4.82;2.95;;;;;;;;;;10475678;28;20032;-50
2022/08/27 16:46:35;;;;;;;5.32;2.70;;;;;;;;;;10468662;28;20492;-50
2022/08/27 16:51:36;;;;;;;3.90;2.63;;;;;;;;;;10483189;28;20120;-51
2022/08/27 16:56:39;;;;;;;5.20;2.55;;;;;;;;;;10463769;28;20496;-50
2022/08/27 17:01:45;;;;;;;4.47;2.65;;;;;;;;;;10473057;28;20480;-53
2022/08/27 17:06:46;;;;;;;7.38;3.00;;;;;;;;;;10443642;28;20068;-50
2022/08/27 17:11:55;;;;;;;7.97;2.75;;;;;;;;;;10441089;28;20385;-51
2022/08/27 17:16:56;;;;;;;6.30;2.65;;;;;;;;;;10441571;28;20033;-50
2022/08/27 17:21:56;;;;;;;4.38;2.90;;;;;;;;;;10435154;28;20583;-53
2022/08/27 17:26:57;;;;;;;2.55;2.33;;;;;;;;;;10436947;28;20665;-56
2022/08/27 17:31:59;;;;;;;6.75;2.55;;;;;;;;;;10437748;28;20041;-54
2022/08/27 17:37:00;;;;;;;5.22;2.40;;;;;;;;;;10438009;28;20086;-57
2022/08/27 17:42:00;;;;;;;3.60;2.60;;;;;;;;;;10421411;28;20067;-56
2022/08/27 17:47:06;;;;;;;3.22;2.50;;;;;;;;;;10424358;28;20489;-51
2022/08/27 17:52:13;;;;;;;2.40;2.20;;;;;;;;;;10434352;28;20120;-49
2022/08/27 17:57:21;;;;;;;5.45;2.90;;;;;;;;;;10432651;28;20489;-49
2022/08/27 18:02:40;;;;;;;3.05;2.67;;;;;;;;;;10440804;28;20423;-49
2022/08/27 18:07:42;;;;;;;6.20;2.97;;;;;;;;;;10437874;28;20049;-49
2022/08/27 18:12:44;;;;;;;3.10;2.60;;;;;;;;;;10436203;28;20033;-48
2022/08/27 18:17:45;;;;;;;3.80;2.45;;;;;;;;;;10437310;28;20033;-50
2022/08/27 18:22:47;;;;;;;4.80;2.88;;;;;;;;;;10433627;28;20120;-53
2022/08/27 18:27:51;;;;;;;4.32;3.10;;;;;;;;;;10437218;28;20079;-49
2022/08/27 18:32:52;;;;;;;3.95;3.10;;;;;;;;;;10424641;28;20416;-49
2022/08/27 18:37:53;;;;;;;3.45;3.08;;;;;;;;;;10425338;28;20040;-49
2022/08/27 18:42:54;;;;;;;4.13;3.33;;;;;;;;;;10434971;28;20040;-49
2022/08/27 18:47:57;;;;;;;4.15;3.33;;;;;;;;;;10418852;28;20392;-49
2022/08/27 18:52:58;;;;;;;6.68;3.70;;;;;;;;;;10435846;28;20501;-50
2022/08/27 18:57:58;;;;;;;4.95;3.30;;;;;;;;;;10429158;28;20033;-49
2022/08/27 19:03:00;;;;;;;8.43;3.85;;;;;;;;;;10438510;28;20033;-48
2022/08/27 19:08:01;;;;;;;8.70;3.47;;;;;;;;;;10483996;28;20083;-48
2022/08/27 19:13:03;;;;;;;9.88;3.97;;;;;;;;;;10485627;28;20049;-48
2022/08/27 19:18:03;;;;;;;6.35;3.53;;;;;;;;;;10485453;28;20483;-50
2022/08/27 19:23:04;;;;;;;5.55;3.70;;;;;;;;;;10482533;28;20032;-49
2022/08/27 19:28:05;;;;;;;5.07;3.70;;;;;;;;;;10480190;28;20047;-50
2022/08/27 19:33:06;;;;;;;4.43;3.33;;;;;;;;;;10488790;28;20028;-49
2022/08/27 19:38:10;;;;;;;4.22;3.22;;;;;;;;;;10491706;28;20089;-53
2022/08/27 19:43:10;;;;;;;4.13;2.90;;;;;;;;;;10471680;28;20498;-55
2022/08/27 19:48:13;;;;;;;4.35;3.40;;;;;;;;;;10490491;28;20047;-55
2022/08/27 19:53:13;;;;;;;4.53;3.17;;;;;;;;;;10470312;28;20040;-54
2022/08/27 19:58:16;;;;;;;3.97;2.80;;;;;;;;;;10463268;28;20374;-50
2022/08/27 20:03:18;;;;;;;5.10;3.30;;;;;;;;;;10484390;28;20029;-51
2022/08/27 20:08:19;;;;;;;8.35;4.32;;;;;;;;;;10476139;28;20052;-48
2022/08/27 20:13:19;;;;;;;8.50;4.35;;;;;;;;;;10477916;28;20472;-55
2022/08/27 20:18:20;;;;;;;6.22;3.75;;;;;;;;;;10472721;28;20396;-56
2022/08/27 20:23:21;;;;;;;7.50;3.75;;;;;;;;;;10476588;28;20027;-51
2022/08/27 20:28:21;;;;;;;7.10;3.83;;;;;;;;;;10484207;28;20082;-48
2022/08/27 20:33:22;;;;;;;8.40;3.97;;;;;;;;;;10479689;28;20031;-48
2022/08/27 20:38:22;;;;;;;5.50;3.50;;;;;;;;;;10480764;28;20033;-48
2022/08/27 20:43:23;;;;;;;5.00;3.30;;;;;;;;;;10479726;28;20031;-48
2022/08/27 20:48:24;;;;;;;6.00;3.10;;;;;;;;;;10476748;28;20087;-48
2022/08/27 20:53:24;;;;;;;3.05;2.75;;;;;;;;;;10482373;28;20020;-51
2022/08/27 21:03:44;;;;;;;6.03;3.15;;;;;;;;;;10480839;28;20539;-51
2022/08/27 21:08:45;;;;;;;4.78;3.22;;;;;;;;;;10452674;28;20037;-50
2022/08/27 21:13:45;;;;;;;6.80;3.10;;;;;;;;;;10473315;28;20128;-50
2022/08/27 21:18:46;;;;;;;3.30;2.70;;;;;;;;;;10470441;28;20045;-56
2022/08/27 21:23:47;;;;;;;3.42;3.13;;;;;;;;;;10475190;28;20029;-54
2022/08/27 21:28:48;;;;;;;4.80;3.20;;;;;;;;;;10478669;28;20111;-57
2022/08/27 21:33:48;;;;;;;7.03;3.60;;;;;;;;;;10476703;28;20038;-50
2022/08/27 21:38:49;;;;;;;5.45;3.50;;;;;;;;;;10479178;28;20028;-59
2022/08/27 21:43:50;;;;;;;7.10;3.60;;;;;;;;;;10482430;28;20374;-52
2022/08/27 21:48:54;;;;;;;8.68;3.88;;;;;;;;;;10480542;28;20120;-57
2022/08/27 21:53:57;;;;;;;7.43;4.65;;;;;;;;;;10484543;28;20070;-49
2022/08/27 21:58:58;;;;;;;12.07;4.00;;;;;;;;;;10485456;28;20043;-50
2022/08/27 22:03:59;;;;;;;10.25;4.03;;;;;;;;;;10478037;28;20040;-49
2022/08/27 22:08:59;;;;;;;9.23;4.32;;;;;;;;;;10469451;28;20043;-50
2022/08/27 22:14:00;;;;;;;7.13;4.25;;;;;;;;;;10474995;28;20212;-46
2022/08/27 22:19:00;;;;;;;8.27;4.05;;;;;;;;;;10469293;28;20025;-48
2022/08/27 22:24:01;;;;;;;9.10;3.80;;;;;;;;;;10472334;28;20047;-47
2022/08/27 22:29:03;;;;;;;12.20;3.67;;;;;;;;;;10465407;28;20028;-47
2022/08/27 22:34:04;;;;;;;4.20;3.22;;;;;;;;;;10431709;28;20029;-48
2022/08/27 22:39:05;;;;;;;12.10;4.07;;;;;;;;;;10477097;28;20052;-49
2022/08/27 22:44:05;;;;;;;14.05;4.07;;;;;;;;;;10483429;28;20036;-46
2022/08/27 22:49:06;;;;;;;9.77;3.20;;;;;;;;;;10489772;28;20032;-46
2022/08/27 22:54:07;;;;;;;11.18;3.63;;;;;;;;;;10478850;28;20032;-46
2022/08/27 22:59:08;;;;;;;7.88;3.38;;;;;;;;;;10481929;28;20040;-56
2022/08/27 23:04:08;;;;;;;4.00;3.00;;;;;;;;;;10465891;28;20041;-48
2022/08/27 23:09:09;;;;;;;8.27;2.70;;;;;;;;;;10491443;28;20712;-51
2022/08/27 23:14:10;;;;;;;10.63;3.10;;;;;;;;;;10492808;28;20492;-47
2022/08/27 23:19:11;;;;;;;6.53;2.97;;;;;;;;;;10476665;28;20148;-54
2022/08/27 23:24:12;;;;;;;9.57;3.05;;;;;;;;;;10475560;28;20094;-54
2022/08/27 23:29:12;;;;;;;12.38;2.80;;;;;;;;;;10469056;28;20028;-53
2022/08/27 23:34:14;;;;;;;5.15;3.13;;;;;;;;;;10485171;28;20515;-50
2022/08/27 23:39:15;;;;;;;9.50;3.47;;;;;;;;;;10483999;28;20036;-55
2022/08/27 23:44:16;;;;;;;8.98;3.20;;;;;;;;;;10483615;28;20036;-51
2022/08/27 23:49:16;;;;;;;3.95;2.88;;;;;;;;;;10486815;28;20028;-61
2022/08/27 23:54:17;;;;;;;7.88;2.42;;;;;;;;;;10489037;28;20036;-49
2022/08/27 23:59:17;;;;;;;5.13;2.40;;;;;;;;;;10475795;28;20037;-49
